sensor_id;sensor_type;location;lat;lon;timestamp;pressure;altitude;pressure_sealevel;temperature;humidity
74649;BME280;63168;49.280;7.214;2023-02-08T00:00:11;100769.63;;;18.17;42.76
74649;BME280;63168;49.280;7.214;2023-02-08T00:02:36;100767.88;;;18.16;42.66
74649;BME280;63168;49.280;7.214;2023-02-08T00:05:04;100767.88;;;18.16;42.28
74649;BME280;63168;49.280;7.214;2023-02-08T00:07:29;100762.56;;;18.16;42.66
74649;BME280;63168;49.280;7.214;2023-02-08T00:09:55;100765.22;;;18.16;42.22
74649;BME280;63168;49.280;7.214;2023-02-08T00:12:20;100761.72;;;18.15;42.25
74649;BME280;63168;49.280;7.214;2023-02-08T00:14:45;100758.19;;;18.14;42.58
74649;BME280;63168;49.280;7.214;2023-02-08T00:17:11;100752.88;;;18.14;42.59
74649;BME280;63168;49.280;7.214;2023-02-08T00:19:36;100760.84;;;18.14;42.20
74649;BME280;63168;49.280;7.214;2023-02-08T00:22:03;100758.19;;;18.14;42.52
74649;BME280;63168;49.280;7.214;2023-02-08T00:24:28;100763.50;;;18.14;42.31
74649;BME280;63168;49.280;7.214;2023-02-08T00:26:54;100762.63;;;18.14;42.20
74649;BME280;63168;49.280;7.214;2023-02-08T00:29:19;100761.81;;;18.13;42.31
74649;BME280;63168;49.280;7.214;2023-02-08T00:31:45;100759.16;;;18.13;42.67
74649;BME280;63168;49.280;7.214;2023-02-08T00:34:10;100759.16;;;18.13;42.27
74649;BME280;63168;49.280;7.214;2023-02-08T00:36:35;100764.47;;;18.13;42.15
74649;BME280;63168;49.280;7.214;2023-02-08T00:39:02;100758.28;;;18.13;42.21
74649;BME280;63168;49.280;7.214;2023-02-08T00:41:28;100761.81;;;18.13;42.62
74649;BME280;63168;49.280;7.214;2023-02-08T00:43:53;100761.81;;;18.13;42.15
74649;BME280;63168;49.280;7.214;2023-02-08T00:46:19;100762.63;;;18.14;42.13
74649;BME280;63168;49.280;7.214;2023-02-08T00:48:44;100752.97;;;18.13;42.39
74649;BME280;63168;49.280;7.214;2023-02-08T00:51:11;100749.44;;;18.12;42.41
74649;BME280;63168;49.280;7.214;2023-02-08T00:53:39;100757.41;;;18.12;42.14
74649;BME280;63168;49.280;7.214;2023-02-08T00:56:07;100760.94;;;18.13;42.09
74649;BME280;63168;49.280;7.214;2023-02-08T00:58:33;100754.75;;;18.12;42.08
74649;BME280;63168;49.280;7.214;2023-02-08T01:00:59;100760.06;;;18.12;42.37
74649;BME280;63168;49.280;7.214;2023-02-08T01:03:25;100756.56;;;18.12;42.36
74649;BME280;63168;49.280;7.214;2023-02-08T01:05:51;100763.66;;;18.11;42.45
74649;BME280;63168;49.280;7.214;2023-02-08T01:08:16;100760.06;;;18.12;42.61
74649;BME280;63168;49.280;7.214;2023-02-08T01:10:43;100763.66;;;18.11;42.17
74649;BME280;63168;49.280;7.214;2023-02-08T01:13:10;100750.38;;;18.11;42.36
74649;BME280;63168;49.280;7.214;2023-02-08T01:15:36;100756.56;;;18.12;42.29
74649;BME280;63168;49.280;7.214;2023-02-08T01:18:02;100755.69;;;18.11;42.53
74649;BME280;63168;49.280;7.214;2023-02-08T01:20:27;100748.69;;;18.10;42.31
74649;BME280;63168;49.280;7.214;2023-02-08T01:22:54;100753.03;;;18.11;42.36
74649;BME280;63168;49.280;7.214;2023-02-08T01:25:20;100746.03;;;18.10;42.26
74649;BME280;63168;49.280;7.214;2023-02-08T01:27:45;100743.38;;;18.10;42.13
74649;BME280;63168;49.280;7.214;2023-02-08T01:30:12;100746.03;;;18.10;42.00
74649;BME280;63168;49.280;7.214;2023-02-08T01:32:38;100729.22;;;18.10;42.17
74649;BME280;63168;49.280;7.214;2023-02-08T01:35:04;100737.19;;;18.10;42.38
74649;BME280;63168;49.280;7.214;2023-02-08T01:37:29;100746.97;;;18.09;42.27
74649;BME280;63168;49.280;7.214;2023-02-08T01:39:54;100744.31;;;18.09;42.09
74649;BME280;63168;49.280;7.214;2023-02-08T01:42:20;100740.75;;;18.09;42.34
74649;BME280;63168;49.280;7.214;2023-02-08T01:45:24;100733.69;;;18.09;42.27
74649;BME280;63168;49.280;7.214;2023-02-08T01:47:54;100734.56;;;18.08;42.45
74649;BME280;63168;49.280;7.214;2023-02-08T01:50:23;100742.53;;;18.08;42.18
74649;BME280;63168;49.280;7.214;2023-02-08T01:52:50;100741.69;;;18.08;42.01
74649;BME280;63168;49.280;7.214;2023-02-08T01:55:19;100741.66;;;18.09;41.92
74649;BME280;63168;49.280;7.214;2023-02-08T01:57:46;100745.19;;;18.08;42.02
74649;BME280;63168;49.280;7.214;2023-02-08T02:00:19;100742.53;;;18.08;42.02
74649;BME280;63168;49.280;7.214;2023-02-08T02:02:50;100741.69;;;18.08;41.97
74649;BME280;63168;49.280;7.214;2023-02-08T02:05:18;100734.66;;;18.07;41.97
74649;BME280;63168;49.280;7.214;2023-02-08T02:07:44;100735.53;;;18.07;42.17
74649;BME280;63168;49.280;7.214;2023-02-08T02:10:13;100738.19;;;18.07;42.34
74649;BME280;63168;49.280;7.214;2023-02-08T02:12:40;100732.88;;;18.07;42.30
74649;BME280;63168;49.280;7.214;2023-02-08T02:15:07;100736.47;;;18.06;42.03
74649;BME280;63168;49.280;7.214;2023-02-08T02:17:33;100731.16;;;18.06;42.12
74649;BME280;63168;49.280;7.214;2023-02-08T02:20:03;100732.06;;;18.05;42.20
74649;BME280;63168;49.280;7.214;2023-02-08T02:23:02;100731.25;;;18.05;41.98
74649;BME280;63168;49.280;7.214;2023-02-08T02:25:55;100724.09;;;18.05;42.17
74649;BME280;63168;49.280;7.214;2023-02-08T02:28:41;100721.47;;;18.05;41.83
74649;BME280;63168;49.280;7.214;2023-02-08T02:31:41;100723.28;;;18.05;42.27
74649;BME280;63168;49.280;7.214;2023-02-08T02:34:14;100718.81;;;18.05;41.91
74649;BME280;63168;49.280;7.214;2023-02-08T02:36:50;100728.56;;;18.05;41.85
74649;BME280;63168;49.280;7.214;2023-02-08T02:39:19;100716.25;;;18.04;41.90
74649;BME280;63168;49.280;7.214;2023-02-08T02:41:55;100719.75;;;18.04;42.02
74649;BME280;63168;49.280;7.214;2023-02-08T02:44:46;100712.72;;;18.03;42.04
74649;BME280;63168;49.280;7.214;2023-02-08T02:47:24;100713.59;;;18.04;41.96
74649;BME280;63168;49.280;7.214;2023-02-08T02:49:53;100711.03;;;18.02;41.79
74649;BME280;63168;49.280;7.214;2023-02-08T02:52:24;100710.06;;;18.03;42.12
74649;BME280;63168;49.280;7.214;2023-02-08T02:54:54;100703.06;;;18.02;41.96
74649;BME280;63168;49.280;7.214;2023-02-08T02:57:25;100701.31;;;18.01;41.77
74649;BME280;63168;49.280;7.214;2023-02-08T02:59:52;100699.53;;;18.01;42.16
74649;BME280;63168;49.280;7.214;2023-02-08T03:02:20;100698.66;;;18.01;41.80
74649;BME280;63168;49.280;7.214;2023-02-08T03:04:48;100695.09;;;18.02;41.83
74649;BME280;63168;49.280;7.214;2023-02-08T03:07:22;100693.34;;;18.01;42.13
74649;BME280;63168;49.280;7.214;2023-02-08T03:10:04;100691.56;;;18.01;42.22
74649;BME280;63168;49.280;7.214;2023-02-08T03:12:39;100696.00;;;18.01;41.75
74649;BME280;63168;49.280;7.214;2023-02-08T03:15:21;100690.78;;;17.99;42.12
74649;BME280;63168;49.280;7.214;2023-02-08T03:18:03;100683.69;;;18.00;41.71
74649;BME280;63168;49.280;7.214;2023-02-08T03:20:31;100689.94;;;17.99;42.20
74649;BME280;63168;49.280;7.214;2023-02-08T03:23:00;100694.31;;;18.00;41.91
74649;BME280;63168;49.280;7.214;2023-02-08T03:25:33;100691.66;;;18.00;41.73
74649;BME280;63168;49.280;7.214;2023-02-08T03:28:04;100689.94;;;17.99;42.03
74649;BME280;63168;49.280;7.214;2023-02-08T03:30:37;100684.63;;;17.99;41.94
74649;BME280;63168;49.280;7.214;2023-02-08T03:33:13;100688.13;;;17.99;41.99
74649;BME280;63168;49.280;7.214;2023-02-08T03:35:43;100678.53;;;17.97;41.60
74649;BME280;63168;49.280;7.214;2023-02-08T03:38:14;100679.41;;;17.97;42.09
74649;BME280;63168;49.280;7.214;2023-02-08T03:40:44;100685.66;;;17.96;41.98
74649;BME280;63168;49.280;7.214;2023-02-08T03:43:13;100692.66;;;17.97;41.63
74649;BME280;63168;49.280;7.214;2023-02-08T03:45:45;100684.78;;;17.96;41.75
74649;BME280;63168;49.280;7.214;2023-02-08T03:48:16;100685.66;;;17.96;41.80
74649;BME280;63168;49.280;7.214;2023-02-08T03:50:44;100685.72;;;17.95;41.68
74649;BME280;63168;49.280;7.214;2023-02-08T03:53:12;100684.00;;;17.94;41.54
74649;BME280;63168;49.280;7.214;2023-02-08T03:55:41;100687.50;;;17.94;41.80
74649;BME280;63168;49.280;7.214;2023-02-08T03:58:15;100681.34;;;17.94;42.10
74649;BME280;63168;49.280;7.214;2023-02-08T04:00:46;100677.75;;;17.95;41.53
74649;BME280;63168;49.280;7.214;2023-02-08T04:03:16;100678.69;;;17.94;41.65
74649;BME280;63168;49.280;7.214;2023-02-08T04:05:44;100679.63;;;17.93;41.97
74649;BME280;63168;49.280;7.214;2023-02-08T04:08:10;100672.53;;;17.93;41.85
74649;BME280;63168;49.280;7.214;2023-02-08T04:10:35;100673.44;;;17.92;41.62
74649;BME280;63168;49.280;7.214;2023-02-08T04:13:01;100674.31;;;17.93;41.88
74649;BME280;63168;49.280;7.214;2023-02-08T04:15:26;100673.44;;;17.92;41.99
74649;BME280;63168;49.280;7.214;2023-02-08T04:17:52;100670.91;;;17.91;41.79
74649;BME280;63168;49.280;7.214;2023-02-08T04:20:19;100673.44;;;17.92;41.96
74649;BME280;63168;49.280;7.214;2023-02-08T04:22:44;100670.03;;;17.90;41.86
74649;BME280;63168;49.280;7.214;2023-02-08T04:25:10;100669.16;;;17.89;41.92
74649;BME280;63168;49.280;7.214;2023-02-08T04:27:35;100669.16;;;17.89;41.96
74649;BME280;63168;49.280;7.214;2023-02-08T04:30:00;100674.47;;;17.89;41.78
74649;BME280;63168;49.280;7.214;2023-02-08T04:32:26;100674.47;;;17.89;41.72
74649;BME280;63168;49.280;7.214;2023-02-08T04:34:51;100670.97;;;17.89;41.41
74649;BME280;63168;49.280;7.214;2023-02-08T04:37:18;100676.28;;;17.89;41.88
74649;BME280;63168;49.280;7.214;2023-02-08T04:39:43;100670.09;;;17.88;41.72
74649;BME280;63168;49.280;7.214;2023-02-08T04:42:09;100672.75;;;17.88;41.52
74649;BME280;63168;49.280;7.214;2023-02-08T04:44:34;100672.75;;;17.88;41.71
74649;BME280;63168;49.280;7.214;2023-02-08T04:47:00;100660.44;;;17.87;41.66
74649;BME280;63168;49.280;7.214;2023-02-08T04:49:25;100661.28;;;17.88;41.72
74649;BME280;63168;49.280;7.214;2023-02-08T04:51:50;100655.59;;;17.96;41.81
74649;BME280;63168;49.280;7.214;2023-02-08T04:54:18;100662.91;;;18.08;42.27
74649;BME280;63168;49.280;7.214;2023-02-08T04:56:43;100657.53;;;18.10;41.78
74649;BME280;63168;49.280;7.214;2023-02-08T04:59:08;100662.13;;;18.06;41.95
74649;BME280;63168;49.280;7.214;2023-02-08T05:01:34;100660.66;;;18.00;41.80
74649;BME280;63168;49.280;7.214;2023-02-08T05:03:59;100657.28;;;17.97;42.11
74649;BME280;63168;49.280;7.214;2023-02-08T05:06:25;100656.75;;;17.90;42.13
74649;BME280;63168;49.280;7.214;2023-02-08T05:08:50;100659.63;;;17.85;42.01
74649;BME280;63168;49.280;7.214;2023-02-08T05:11:21;100658.09;;;17.81;41.68
74649;BME280;63168;49.280;7.214;2023-02-08T05:13:48;100650.28;;;17.78;42.20
74649;BME280;63168;49.280;7.214;2023-02-08T05:16:13;100650.44;;;17.75;42.07
74649;BME280;63168;49.280;7.214;2023-02-08T05:18:38;100658.47;;;17.73;41.92
74649;BME280;63168;49.280;7.214;2023-02-08T05:21:04;100653.25;;;17.72;42.18
74649;BME280;63168;49.280;7.214;2023-02-08T05:23:29;100649.81;;;17.70;41.90
74649;BME280;63168;49.280;7.214;2023-02-08T05:25:56;100644.59;;;17.68;41.89
74649;BME280;63168;49.280;7.214;2023-02-08T05:28:23;100642.00;;;17.67;41.97
74649;BME280;63168;49.280;7.214;2023-02-08T05:30:48;100640.28;;;17.66;42.05
74649;BME280;63168;49.280;7.214;2023-02-08T05:33:14;100638.59;;;17.65;42.00
74649;BME280;63168;49.280;7.214;2023-02-08T05:35:39;100650.13;;;17.63;42.08
74649;BME280;63168;49.280;7.214;2023-02-08T05:38:05;100652.00;;;17.61;42.03
74649;BME280;63168;49.280;7.214;2023-02-08T05:40:31;100658.22;;;17.60;41.61
74649;BME280;63168;49.280;7.214;2023-02-08T05:42:57;100646.78;;;17.60;41.93
74649;BME280;63168;49.280;7.214;2023-02-08T05:45:24;100662.75;;;17.58;42.02
74649;BME280;63168;49.280;7.214;2023-02-08T05:47:49;100659.25;;;17.58;41.66
74649;BME280;63168;49.280;7.214;2023-02-08T05:50:15;100669.84;;;17.58;42.05
74649;BME280;63168;49.280;7.214;2023-02-08T05:52:40;100668.22;;;17.55;41.98
74649;BME280;63168;49.280;7.214;2023-02-08T05:55:06;100662.03;;;17.55;42.04
74649;BME280;63168;49.280;7.214;2023-02-08T05:57:32;100666.50;;;17.54;42.04
74649;BME280;63168;49.280;7.214;2023-02-08T05:59:57;100663.94;;;17.53;41.67
74649;BME280;63168;49.280;7.214;2023-02-08T06:02:24;100660.41;;;17.52;41.90
74649;BME280;63168;49.280;7.214;2023-02-08T06:04:50;100658.69;;;17.51;41.84
74649;BME280;63168;49.280;7.214;2023-02-08T06:07:15;100662.28;;;17.50;41.89
74649;BME280;63168;49.280;7.214;2023-02-08T06:09:41;100663.22;;;17.49;41.78
74649;BME280;63168;49.280;7.214;2023-02-08T06:12:06;100665.84;;;17.49;41.90
74649;BME280;63168;49.280;7.214;2023-02-08T06:14:32;100666.81;;;17.48;42.09
74649;BME280;63168;49.280;7.214;2023-02-08T06:16:57;100665.09;;;17.47;41.79
74649;BME280;63168;49.280;7.214;2023-02-08T06:19:24;100671.34;;;17.46;42.05
74649;BME280;63168;49.280;7.214;2023-02-08T06:21:50;100664.28;;;17.45;41.95
74649;BME280;63168;49.280;7.214;2023-02-08T06:24:15;100666.94;;;17.45;41.98
74649;BME280;63168;49.280;7.214;2023-02-08T06:26:41;100674.91;;;17.45;41.81
74649;BME280;63168;49.280;7.214;2023-02-08T06:29:06;100680.28;;;17.43;41.97
74649;BME280;63168;49.280;7.214;2023-02-08T06:31:32;100677.63;;;17.43;42.03
74649;BME280;63168;49.280;7.214;2023-02-08T06:33:57;100679.44;;;17.43;41.61
74649;BME280;63168;49.280;7.214;2023-02-08T06:36:24;100688.31;;;17.42;41.65
74649;BME280;63168;49.280;7.214;2023-02-08T06:38:49;100683.94;;;17.41;41.62
74649;BME280;63168;49.280;7.214;2023-02-08T06:41:15;100689.25;;;17.41;41.69
74649;BME280;63168;49.280;7.214;2023-02-08T06:43:41;100694.63;;;17.39;41.92
74649;BME280;63168;49.280;7.214;2023-02-08T06:46:06;100693.69;;;17.40;41.63
74649;BME280;63168;49.280;7.214;2023-02-08T06:48:32;100692.84;;;17.40;41.57
74649;BME280;63168;49.280;7.214;2023-02-08T06:50:58;100688.50;;;17.38;41.80
74649;BME280;63168;49.280;7.214;2023-02-08T06:53:25;100685.84;;;17.38;41.92
74649;BME280;63168;49.280;7.214;2023-02-08T06:55:51;100684.09;;;17.37;41.56
74649;BME280;63168;49.280;7.214;2023-02-08T06:58:16;100686.75;;;17.37;41.98
74649;BME280;63168;49.280;7.214;2023-02-08T07:00:42;100684.09;;;17.37;41.76
74649;BME280;63168;49.280;7.214;2023-02-08T07:03:10;100685.03;;;17.36;41.56
74649;BME280;63168;49.280;7.214;2023-02-08T07:05:36;100688.56;;;17.37;41.38
74649;BME280;63168;49.280;7.214;2023-02-08T07:08:02;100688.63;;;17.35;41.93
74649;BME280;63168;49.280;7.214;2023-02-08T07:10:29;100682.38;;;17.36;41.59
74649;BME280;63168;49.280;7.214;2023-02-08T07:12:55;100685.97;;;17.35;41.58
74649;BME280;63168;49.280;7.214;2023-02-08T07:15:20;100695.72;;;17.35;41.68
74649;BME280;63168;49.280;7.214;2023-02-08T07:17:45;100691.28;;;17.35;41.42
74649;BME280;63168;49.280;7.214;2023-02-08T07:20:11;100696.59;;;17.35;41.68
74649;BME280;63168;49.280;7.214;2023-02-08T07:22:37;100691.34;;;17.34;41.32
74649;BME280;63168;49.280;7.214;2023-02-08T07:25:03;100694.00;;;17.34;41.24
74649;BME280;63168;49.280;7.214;2023-02-08T07:27:29;100699.31;;;17.34;41.66
74649;BME280;63168;49.280;7.214;2023-02-08T07:29:55;100701.97;;;17.34;41.65
74649;BME280;63168;49.280;7.214;2023-02-08T07:32:20;100703.75;;;17.33;41.54
74649;BME280;63168;49.280;7.214;2023-02-08T07:34:46;100703.75;;;17.33;41.44
74649;BME280;63168;49.280;7.214;2023-02-08T07:37:11;100698.50;;;17.32;41.37
74649;BME280;63168;49.280;7.214;2023-02-08T07:39:37;100702.03;;;17.32;41.24
74649;BME280;63168;49.280;7.214;2023-02-08T07:42:03;100694.94;;;17.33;41.60
74649;BME280;63168;49.280;7.214;2023-02-08T07:44:32;100694.06;;;17.32;41.24
74649;BME280;63168;49.280;7.214;2023-02-08T07:46:57;100688.78;;;17.32;41.61
74649;BME280;63168;49.280;7.214;2023-02-08T07:49:23;100686.13;;;17.32;41.29
74649;BME280;63168;49.280;7.214;2023-02-08T07:51:48;100687.84;;;17.33;41.13
74649;BME280;63168;49.280;7.214;2023-02-08T07:54:13;100693.13;;;17.33;41.29
74649;BME280;63168;49.280;7.214;2023-02-08T07:56:39;100687.84;;;17.33;41.02
74649;BME280;63168;49.280;7.214;2023-02-08T07:59:04;100693.13;;;17.33;41.14
74649;BME280;63168;49.280;7.214;2023-02-08T08:01:31;100695.78;;;17.33;41.10
74649;BME280;63168;49.280;7.214;2023-02-08T08:03:57;100699.31;;;17.34;41.09
74649;BME280;63168;49.280;7.214;2023-02-08T08:06:22;100689.53;;;17.34;41.41
74649;BME280;63168;49.280;7.214;2023-02-08T08:08:48;100685.97;;;17.35;40.85
74649;BME280;63168;49.280;7.214;2023-02-08T08:11:14;100683.31;;;17.35;40.94
74649;BME280;63168;49.280;7.214;2023-02-08T08:13:40;100685.97;;;17.35;41.13
74649;BME280;63168;49.280;7.214;2023-02-08T08:16:05;100683.31;;;17.35;40.94
74649;BME280;63168;49.280;7.214;2023-02-08T08:18:32;100680.69;;;17.35;41.23
74649;BME280;63168;49.280;7.214;2023-02-08T08:20:58;100683.31;;;17.35;41.31
74649;BME280;63168;49.280;7.214;2023-02-08T08:23:23;100683.31;;;17.35;41.29
74649;BME280;63168;49.280;7.214;2023-02-08T08:25:48;100680.69;;;17.35;40.65
74649;BME280;63168;49.280;7.214;2023-02-08T08:28:14;100685.03;;;17.36;40.97
74649;BME280;63168;49.280;7.214;2023-02-08T08:30:42;100684.16;;;17.36;40.65
74649;BME280;63168;49.280;7.214;2023-02-08T08:33:08;100687.69;;;17.36;41.22
74649;BME280;63168;49.280;7.214;2023-02-08T08:35:34;100688.56;;;17.37;41.04
74649;BME280;63168;49.280;7.214;2023-02-08T08:38:00;100684.09;;;17.37;40.89
74649;BME280;63168;49.280;7.214;2023-02-08T08:40:25;100684.09;;;17.37;40.82
74649;BME280;63168;49.280;7.214;2023-02-08T08:42:50;100683.25;;;17.37;41.06
74649;BME280;63168;49.280;7.214;2023-02-08T08:45:16;100681.44;;;17.37;40.61
74649;BME280;63168;49.280;7.214;2023-02-08T08:47:41;100677.00;;;17.38;40.60
74649;BME280;63168;49.280;7.214;2023-02-08T08:50:07;100680.53;;;17.38;40.71
74649;BME280;63168;49.280;7.214;2023-02-08T08:52:34;100670.75;;;17.39;40.96
74649;BME280;63168;49.280;7.214;2023-02-08T08:54:59;100666.31;;;17.40;40.90
74649;BME280;63168;49.280;7.214;2023-02-08T08:57:25;100668.09;;;17.39;40.81
74649;BME280;63168;49.280;7.214;2023-02-08T08:59:50;100669.94;;;17.38;40.66
74649;BME280;63168;49.280;7.214;2023-02-08T09:02:15;100679.59;;;17.40;40.91
74649;BME280;63168;49.280;7.214;2023-02-08T09:04:41;100676.06;;;17.39;40.78
74649;BME280;63168;49.280;7.214;2023-02-08T09:07:07;100671.63;;;17.40;40.91
74649;BME280;63168;49.280;7.214;2023-02-08T09:09:34;100662.81;;;17.39;40.85
74649;BME280;63168;49.280;7.214;2023-02-08T09:12:00;100668.03;;;17.41;40.98
74649;BME280;63168;49.280;7.214;2023-02-08T09:14:25;100661.88;;;17.40;40.62
74649;BME280;63168;49.280;7.214;2023-02-08T09:16:51;100651.25;;;17.40;40.39
74649;BME280;63168;49.280;7.214;2023-02-08T09:19:17;100648.59;;;17.40;40.74
74649;BME280;63168;49.280;7.214;2023-02-08T09:21:43;100650.34;;;17.41;40.92
74649;BME280;63168;49.280;7.214;2023-02-08T09:24:09;100642.47;;;17.40;40.31
74649;BME280;63168;49.280;7.214;2023-02-08T09:26:36;100650.41;;;17.40;40.90
74649;BME280;63168;49.280;7.214;2023-02-08T09:29:02;100647.78;;;17.40;40.52
74649;BME280;63168;49.280;7.214;2023-02-08T09:31:29;100642.38;;;17.41;40.28
74649;BME280;63168;49.280;7.214;2023-02-08T09:33:57;100648.53;;;17.42;40.64
74649;BME280;63168;49.280;7.214;2023-02-08T09:36:26;100654.78;;;17.41;40.59
74649;BME280;63168;49.280;7.214;2023-02-08T09:38:53;100653.00;;;17.41;40.82
74649;BME280;63168;49.280;7.214;2023-02-08T09:41:31;100657.44;;;17.41;40.59
74649;BME280;63168;49.280;7.214;2023-02-08T09:44:12;100657.44;;;17.41;40.62
74649;BME280;63168;49.280;7.214;2023-02-08T09:46:45;100659.13;;;17.42;40.65
74649;BME280;63168;49.280;7.214;2023-02-08T09:49:17;100653.00;;;17.41;40.55
74649;BME280;63168;49.280;7.214;2023-02-08T09:51:49;100656.50;;;17.42;40.25
74649;BME280;63168;49.280;7.214;2023-02-08T09:54:20;100653.00;;;17.41;40.36
74649;BME280;63168;49.280;7.214;2023-02-08T09:56:47;100653.00;;;17.41;40.29
74649;BME280;63168;49.280;7.214;2023-02-08T09:59:21;100651.19;;;17.42;40.32
74649;BME280;63168;49.280;7.214;2023-02-08T10:01:48;100645.88;;;17.42;40.23
74649;BME280;63168;49.280;7.214;2023-02-08T10:04:22;100645.03;;;17.41;40.19
74649;BME280;63168;49.280;7.214;2023-02-08T10:06:50;100637.09;;;17.41;40.31
74649;BME280;63168;49.280;7.214;2023-02-08T10:09:25;100643.22;;;17.42;40.22
74649;BME280;63168;49.280;7.214;2023-02-08T10:12:02;100639.75;;;17.41;40.19
74649;BME280;63168;49.280;7.214;2023-02-08T10:14:40;100637.09;;;17.41;40.34
74649;BME280;63168;49.280;7.214;2023-02-08T10:17:23;100631.84;;;17.40;40.19
74649;BME280;63168;49.280;7.214;2023-02-08T10:20:02;100622.09;;;17.40;40.29
74649;BME280;63168;49.280;7.214;2023-02-08T10:22:35;100622.09;;;17.40;40.67
74649;BME280;63168;49.280;7.214;2023-02-08T10:25:18;100615.88;;;17.41;40.60
74649;BME280;63168;49.280;7.214;2023-02-08T10:27:54;100619.44;;;17.40;40.63
74649;BME280;63168;49.280;7.214;2023-02-08T10:30:32;100616.78;;;17.40;40.28
74649;BME280;63168;49.280;7.214;2023-02-08T10:33:06;100612.34;;;17.41;40.61
74649;BME280;63168;49.280;7.214;2023-02-08T10:35:36;100602.69;;;17.40;40.34
74649;BME280;63168;49.280;7.214;2023-02-08T10:38:21;100603.53;;;17.40;40.59
74649;BME280;63168;49.280;7.214;2023-02-08T10:40:48;100605.34;;;17.40;40.18
74649;BME280;63168;49.280;7.214;2023-02-08T10:43:22;100603.53;;;17.40;40.07
74649;BME280;63168;49.280;7.214;2023-02-08T10:45:53;100602.69;;;17.40;40.53
74649;BME280;63168;49.280;7.214;2023-02-08T10:48:30;100601.81;;;17.39;40.15
74649;BME280;63168;49.280;7.214;2023-02-08T10:50:59;100596.50;;;17.39;40.46
74649;BME280;63168;49.280;7.214;2023-02-08T10:53:24;100602.69;;;17.40;40.45
74649;BME280;63168;49.280;7.214;2023-02-08T10:55:50;100586.78;;;17.40;40.32
74649;BME280;63168;49.280;7.214;2023-02-08T10:58:17;100585.84;;;17.41;40.61
74649;BME280;63168;49.280;7.214;2023-02-08T11:00:43;100586.78;;;17.40;40.69
74649;BME280;63168;49.280;7.214;2023-02-08T11:03:17;100583.19;;;17.41;40.69
74649;BME280;63168;49.280;7.214;2023-02-08T11:05:44;100570.88;;;17.40;40.50
74649;BME280;63168;49.280;7.214;2023-02-08T11:08:12;100572.66;;;17.39;40.47
74649;BME280;63168;49.280;7.214;2023-02-08T11:10:45;100565.56;;;17.40;40.25
74649;BME280;63168;49.280;7.214;2023-02-08T11:13:19;100560.25;;;17.40;40.47
74649;BME280;63168;49.280;7.214;2023-02-08T11:15:47;100556.72;;;17.39;40.49
74649;BME280;63168;49.280;7.214;2023-02-08T11:18:21;100562.03;;;17.39;40.38
74649;BME280;63168;49.280;7.214;2023-02-08T11:20:48;100561.19;;;17.38;40.39
74649;BME280;63168;49.280;7.214;2023-02-08T11:23:19;100553.25;;;17.38;40.23
74649;BME280;63168;49.280;7.214;2023-02-08T11:25:45;100553.25;;;17.38;40.60
74649;BME280;63168;49.280;7.214;2023-02-08T11:28:22;100548.78;;;17.39;40.20
74649;BME280;63168;49.280;7.214;2023-02-08T11:30:55;100549.66;;;17.40;40.45
74649;BME280;63168;49.280;7.214;2023-02-08T11:33:22;100547.94;;;17.38;40.30
74649;BME280;63168;49.280;7.214;2023-02-08T11:35:54;100548.78;;;17.39;40.20
74649;BME280;63168;49.280;7.214;2023-02-08T11:38:20;100540.91;;;17.37;40.20
74649;BME280;63168;49.280;7.214;2023-02-08T11:40:52;100546.19;;;17.37;40.06
74649;BME280;63168;49.280;7.214;2023-02-08T11:43:21;100539.03;;;17.40;40.50
74649;BME280;63168;49.280;7.214;2023-02-08T11:45:47;100539.03;;;17.40;40.25
74649;BME280;63168;49.280;7.214;2023-02-08T11:48:22;100536.47;;;17.38;40.25
74649;BME280;63168;49.280;7.214;2023-02-08T11:50:53;100535.53;;;17.39;40.13
74649;BME280;63168;49.280;7.214;2023-02-08T11:53:21;100525.84;;;17.38;40.34
74649;BME280;63168;49.280;7.214;2023-02-08T11:56:01;100526.72;;;17.38;40.37
74649;BME280;63168;49.280;7.214;2023-02-08T11:58:26;100524.06;;;17.38;40.44
74649;BME280;63168;49.280;7.214;2023-02-08T12:00:58;100526.72;;;17.38;40.44
74649;BME280;63168;49.280;7.214;2023-02-08T12:03:27;100528.50;;;17.38;40.55
74649;BME280;63168;49.280;7.214;2023-02-08T12:06:06;100525.00;;;17.37;40.03
74649;BME280;63168;49.280;7.214;2023-02-08T12:08:41;100525.00;;;17.37;40.31
74649;BME280;63168;49.280;7.214;2023-02-08T12:11:14;100528.50;;;17.38;40.32
74649;BME280;63168;49.280;7.214;2023-02-08T12:13:51;100518.78;;;17.38;40.11
74649;BME280;63168;49.280;7.214;2023-02-08T12:16:28;100521.41;;;17.38;40.17
74649;BME280;63168;49.280;7.214;2023-02-08T12:19:23;100521.41;;;17.38;40.02
74649;BME280;63168;49.280;7.214;2023-02-08T12:21:56;100510.81;;;17.38;40.15
74649;BME280;63168;49.280;7.214;2023-02-08T12:24:31;100505.50;;;17.38;40.27
74649;BME280;63168;49.280;7.214;2023-02-08T12:27:06;100509.94;;;17.38;40.35
74649;BME280;63168;49.280;7.214;2023-02-08T12:29:40;100506.44;;;17.37;40.30
74649;BME280;63168;49.280;7.214;2023-02-08T12:32:22;100504.66;;;17.38;40.33
74649;BME280;63168;49.280;7.214;2023-02-08T12:35:10;100504.66;;;17.38;40.03
74649;BME280;63168;49.280;7.214;2023-02-08T12:37:45;100501.13;;;17.37;40.17
74649;BME280;63168;49.280;7.214;2023-02-08T12:40:40;100502.00;;;17.38;40.39
74649;BME280;63168;49.280;7.214;2023-02-08T12:43:24;100505.50;;;17.38;40.42
74649;BME280;63168;49.280;7.214;2023-02-08T12:46:05;100500.22;;;17.38;40.04
74649;BME280;63168;49.280;7.214;2023-02-08T12:48:53;100494.03;;;17.38;40.49
74649;BME280;63168;49.280;7.214;2023-02-08T12:51:29;100491.38;;;17.38;40.39
74649;BME280;63168;49.280;7.214;2023-02-08T12:54:02;100490.50;;;17.37;40.40
74649;BME280;63168;49.280;7.214;2023-02-08T12:56:34;100495.81;;;17.37;40.12
74649;BME280;63168;49.280;7.214;2023-02-08T12:59:01;100489.59;;;17.38;40.13